Time;durP1;ratioP1;P1;durP2;ratioP2;P2;SDS_P1;SDS_P2;PMS_P1;PMS_P2;Temp;Humidity;BMP_temperature;BMP_pressure;BME280_temperature;BME280_humidity;BME280_pressure;Samples;Min_cycle;Max_cycle;Signal;HPM_P1;HPM_P2
2023/02/23 00:00:31;;;;;;;95.30;50.60;;;11.50;99.90;;;;;;5048317;27;20052;-74
2023/02/23 00:03:00;;;;;;;93.33;49.90;;;11.50;99.90;;;;;;5044966;27;20017;-74
2023/02/23 00:05:28;;;;;;;95.00;49.78;;;11.50;99.90;;;;;;5042981;27;20778;-74
2023/02/23 00:07:54;;;;;;;101.75;54.17;;;11.40;99.90;;;;;;5053667;27;20119;-74
2023/02/23 00:10:24;;;;;;;103.18;52.92;;;11.50;99.90;;;;;;5047818;27;20450;-74
2023/02/23 00:12:50;;;;;;;102.38;53.20;;;11.40;99.90;;;;;;5055599;27;20025;-74
2023/02/23 00:15:16;;;;;;;101.32;53.17;;;11.50;99.90;;;;;;5056118;27;20021;-74
2023/02/23 00:17:42;;;;;;;107.15;53.35;;;11.50;99.90;;;;;;5051040;27;20396;-73
2023/02/23 00:20:10;;;;;;;98.05;52.30;;;11.50;99.90;;;;;;5047885;27;20045;-73
2023/02/23 00:22:40;;;;;;;104.07;52.20;;;11.50;99.90;;;;;;5049582;27;20029;-73
2023/02/23 00:25:14;;;;;;;111.22;52.35;;;11.50;99.90;;;;;;5044111;27;20056;-74
2023/02/23 00:27:44;;;;;;;106.40;52.95;;;11.50;99.90;;;;;;5058030;27;20014;-74
2023/02/23 00:30:12;;;;;;;121.10;57.45;;;11.50;99.90;;;;;;5056494;27;20060;-74
2023/02/23 00:32:37;;;;;;;113.53;54.45;;;11.40;99.90;;;;;;5048811;27;20025;-73
2023/02/23 00:35:08;;;;;;;114.65;56.20;;;11.40;99.90;;;;;;5040397;28;20155;-74
2023/02/23 00:37:34;;;;;;;108.60;54.28;;;11.50;99.90;;;;;;5059072;27;20361;-74
2023/02/23 00:39:59;;;;;;;116.90;56.80;;;11.40;99.90;;;;;;5052320;27;20050;-74
2023/02/23 00:42:30;;;;;;;120.32;55.65;;;11.40;99.90;;;;;;5051195;27;20028;-74
2023/02/23 00:44:56;;;;;;;114.60;59.58;;;11.40;99.90;;;;;;5044171;27;20025;-74
2023/02/23 00:47:22;;;;;;;109.60;55.78;;;11.50;99.90;;;;;;5047031;27;20112;-75
2023/02/23 00:49:48;;;;;;;102.75;52.05;;;11.40;99.90;;;;;;5046710;27;20037;-74
2023/02/23 00:52:14;;;;;;;115.15;53.72;;;11.50;99.90;;;;;;5049332;27;20028;-74
2023/02/23 00:54:40;;;;;;;119.05;57.45;;;11.50;99.90;;;;;;5047424;27;20033;-74
2023/02/23 00:57:06;;;;;;;123.28;59.03;;;11.40;99.90;;;;;;5043138;27;20488;-74
2023/02/23 00:59:32;;;;;;;125.60;58.97;;;11.40;99.90;;;;;;5046857;27;20448;-74
2023/02/23 01:01:57;;;;;;;122.20;57.13;;;11.40;99.90;;;;;;5039080;27;20112;-74
2023/02/23 01:04:23;;;;;;;127.22;60.35;;;11.40;99.90;;;;;;5049410;27;20032;-74
2023/02/23 01:06:49;;;;;;;137.07;61.88;;;11.40;99.90;;;;;;5044535;27;20108;-74
2023/02/23 01:09:26;;;;;;;140.70;64.15;;;11.30;99.90;;;;;;5049920;27;20036;-74
2023/02/23 01:11:52;;;;;;;129.45;60.70;;;11.40;99.90;;;;;;5046831;27;20072;-74
2023/02/23 01:14:18;;;;;;;130.43;59.53;;;11.40;99.90;;;;;;5047724;27;20044;-74
2023/02/23 01:16:43;;;;;;;124.80;62.38;;;11.40;99.90;;;;;;5042982;27;20033;-74
2023/02/23 01:19:09;;;;;;;133.80;59.33;;;11.40;99.90;;;;;;5055606;27;20030;-74
2023/02/23 01:21:38;;;;;;;118.03;57.45;;;11.40;99.90;;;;;;5049133;27;20033;-74
2023/02/23 01:24:06;;;;;;;123.68;62.38;;;11.50;99.90;;;;;;5052772;27;20017;-74
2023/02/23 01:26:34;;;;;;;117.03;57.50;;;11.50;99.90;;;;;;5039565;27;20022;-74
2023/02/23 01:29:03;;;;;;;125.90;60.03;;;11.50;99.90;;;;;;5038823;28;20059;-74
2023/02/23 01:31:29;;;;;;;120.43;60.55;;;11.40;99.90;;;;;;5043664;27;20082;-74
2023/02/23 01:33:56;;;;;;;114.95;55.17;;;11.40;99.90;;;;;;5049708;27;20029;-74
2023/02/23 01:36:24;;;;;;;109.72;54.85;;;11.40;99.90;;;;;;5053734;27;20032;-74
2023/02/23 01:38:50;;;;;;;107.70;53.53;;;11.40;99.90;;;;;;5046178;28;20434;-74
2023/02/23 01:41:16;;;;;;;104.47;54.78;;;11.40;99.90;;;;;;5056139;27;20021;-74
2023/02/23 01:43:59;;;;;;;114.45;52.60;;;11.40;99.90;;;;;;5045442;27;20044;-73
2023/02/23 01:46:24;;;;;;;112.13;54.40;;;11.40;99.90;;;;;;5054657;27;20081;-74
2023/02/23 01:48:51;;;;;;;117.60;56.20;;;11.40;99.90;;;;;;5050507;27;20029;-74
2023/02/23 01:51:20;;;;;;;129.15;57.38;;;11.40;99.90;;;;;;5045527;27;20040;-74
2023/02/23 01:54:07;;;;;;;115.40;58.22;;;11.40;99.90;;;;;;5048888;27;20064;-75
2023/02/23 01:56:42;;;;;;;137.45;58.72;;;11.40;99.90;;;;;;5034862;27;20127;-74
2023/02/23 01:59:11;;;;;;;135.20;59.78;;;11.40;99.90;;;;;;5054243;27;20112;-73
2023/02/23 02:01:39;;;;;;;130.77;57.70;;;11.40;99.90;;;;;;5051563;27;20041;-74
2023/02/23 02:04:06;;;;;;;136.25;61.40;;;11.40;99.90;;;;;;5043164;27;20010;-73
2023/02/23 02:06:34;;;;;;;151.73;65.13;;;11.30;99.90;;;;;;5039173;27;20045;-73
2023/02/23 02:09:09;;;;;;;155.52;64.90;;;11.30;99.90;;;;;;5038068;27;20021;-73
2023/02/23 02:11:35;;;;;;;158.45;67.53;;;11.30;99.90;;;;;;5051902;27;20040;-73
2023/02/23 02:14:11;;;;;;;156.07;67.03;;;11.30;99.90;;;;;;5054651;27;20021;-73
2023/02/23 02:16:46;;;;;;;157.95;67.68;;;11.40;99.90;;;;;;5056079;27;20086;-74
2023/02/23 02:19:28;;;;;;;144.48;65.93;;;11.40;99.90;;;;;;5054034;27;20031;-73
2023/02/23 02:22:03;;;;;;;139.90;64.00;;;11.40;99.90;;;;;;5056429;27;20481;-72
2023/02/23 02:24:29;;;;;;;141.82;67.50;;;11.40;99.90;;;;;;5046734;27;20052;-73
2023/02/23 02:27:30;;;;;;;147.48;69.45;;;11.40;99.90;;;;;;5049636;27;20065;-74
2023/02/23 02:30:21;;;;;;;156.40;68.63;;;11.40;99.90;;;;;;5054100;27;20040;-73
2023/02/23 02:33:10;;;;;;;152.35;67.75;;;11.40;99.90;;;;;;5037466;27;20467;-74
2023/02/23 02:36:05;;;;;;;151.65;70.30;;;11.40;99.90;;;;;;5050727;27;20021;-73
2023/02/23 02:38:52;;;;;;;197.30;77.72;;;11.40;99.90;;;;;;5048739;27;20095;-73
2023/02/23 02:41:41;;;;;;;171.07;71.32;;;11.40;99.90;;;;;;5040446;27;20029;-73
2023/02/23 02:44:22;;;;;;;152.57;68.15;;;11.40;99.90;;;;;;5049301;27;20034;-73
2023/02/23 02:46:56;;;;;;;183.77;76.55;;;11.40;99.90;;;;;;5045420;27;20024;-73
2023/02/23 02:49:30;;;;;;;169.13;74.25;;;11.40;99.90;;;;;;5049141;27;20697;-74
2023/02/23 02:52:04;;;;;;;147.90;66.93;;;11.40;99.90;;;;;;5056818;27;20043;-74
2023/02/23 02:54:39;;;;;;;180.50;76.65;;;11.40;99.90;;;;;;5053011;27;20024;-74
2023/02/23 02:57:06;;;;;;;175.88;73.38;;;11.40;99.90;;;;;;5045226;27;20443;-73
2023/02/23 04:19:53;;;;;;;98.60;44.95;;;10.90;99.90;;;;;;5041464;27;20041;-74
2023/02/23 04:22:19;;;;;;;106.35;43.50;;;10.90;99.90;;;;;;5056397;27;20029;-74
2023/02/23 04:24:45;;;;;;;100.30;43.63;;;10.80;99.90;;;;;;5047942;27;20102;-75
2023/02/23 04:27:12;;;;;;;95.82;41.28;;;10.90;99.90;;;;;;5048054;27;20477;-75
2023/02/23 04:29:38;;;;;;;106.18;43.20;;;10.90;99.90;;;;;;5039712;28;20120;-75
2023/02/23 04:32:03;;;;;;;109.18;44.60;;;10.90;99.90;;;;;;5039493;27;20463;-74
2023/02/23 04:34:29;;;;;;;107.03;43.78;;;10.90;99.90;;;;;;5054262;27;20360;-75
2023/02/23 04:36:54;;;;;;;109.35;46.55;;;10.90;99.90;;;;;;5037615;27;20025;-75
2023/02/23 04:39:20;;;;;;;108.20;44.35;;;10.90;99.90;;;;;;5053538;27;20025;-74
2023/02/23 04:41:49;;;;;;;112.10;44.83;;;10.90;99.90;;;;;;5046731;27;20024;-74
2023/02/23 04:44:17;;;;;;;122.40;47.70;;;10.90;99.90;;;;;;5050060;27;20121;-74
2023/02/23 04:46:43;;;;;;;114.50;47.25;;;10.90;99.90;;;;;;5053858;27;20031;-74
2023/02/23 04:49:09;;;;;;;115.60;46.95;;;10.90;99.90;;;;;;5057426;27;20605;-74
2023/02/23 04:51:35;;;;;;;65.47;32.58;;;10.90;99.90;;;;;;5043683;27;20385;-75
2023/02/23 04:54:02;;;;;;;114.20;47.40;;;10.90;99.90;;;;;;5048806;27;20025;-74
2023/02/23 04:56:29;;;;;;;110.53;46.88;;;11.00;99.90;;;;;;5036160;28;20025;-74
2023/02/23 04:58:54;;;;;;;122.95;50.53;;;11.00;99.90;;;;;;5050837;27;20022;-74
2023/02/23 05:01:21;;;;;;;126.55;50.58;;;10.90;99.90;;;;;;5047264;27;20029;-74
2023/02/23 05:03:48;;;;;;;119.75;48.03;;;10.90;99.90;;;;;;5058081;27;20033;-74
2023/02/23 05:06:17;;;;;;;138.13;48.17;;;10.90;99.90;;;;;;5048378;27;20032;-74
2023/02/23 05:08:43;;;;;;;133.82;49.22;;;10.90;99.90;;;;;;5049211;27;20064;-74
2023/02/23 05:11:09;;;;;;;251.95;64.28;;;10.90;99.90;;;;;;5040837;27;20073;-73
2023/02/23 05:13:35;;;;;;;132.85;51.83;;;10.90;99.90;;;;;;5052733;27;20447;-74
2023/02/23 05:16:00;;;;;;;136.73;50.30;;;10.80;99.90;;;;;;5043749;27;20061;-73
2023/02/23 05:18:26;;;;;;;120.68;48.72;;;10.90;99.90;;;;;;5045036;27;20032;-72
2023/02/23 05:20:52;;;;;;;118.32;48.78;;;10.90;99.90;;;;;;5038430;27;20044;-73
2023/02/23 05:23:20;;;;;;;131.65;50.45;;;10.90;99.90;;;;;;5043729;27;20025;-73
2023/02/23 05:25:46;;;;;;;127.03;51.20;;;10.90;99.90;;;;;;5046315;27;20044;-73
2023/02/23 05:28:11;;;;;;;140.23;53.72;;;10.90;99.90;;;;;;5045281;27;20465;-74
2023/02/23 05:30:37;;;;;;;124.85;51.30;;;10.90;99.90;;;;;;5051072;27;20053;-72
2023/02/23 05:33:02;;;;;;;137.20;52.78;;;10.90;99.90;;;;;;5038366;27;20587;-73
2023/02/23 05:35:28;;;;;;;159.65;58.22;;;10.90;99.90;;;;;;5044203;27;20036;-71
2023/02/23 05:37:54;;;;;;;132.80;52.95;;;10.90;99.90;;;;;;5052757;27;20392;-70
2023/02/23 05:40:20;;;;;;;133.43;56.08;;;10.90;99.90;;;;;;5037082;28;20059;-72
2023/02/23 05:42:46;;;;;;;150.75;59.63;;;10.80;99.90;;;;;;5049780;27;20025;-72
2023/02/23 05:45:11;;;;;;;157.98;58.58;;;10.80;99.90;;;;;;5045856;27;20400;-73
2023/02/23 05:47:37;;;;;;;142.38;55.17;;;10.90;99.90;;;;;;5045249;27;20089;-72
2023/02/23 05:50:08;;;;;;;137.93;57.00;;;10.90;99.90;;;;;;5042433;27;20045;-73
2023/02/23 05:52:41;;;;;;;139.45;57.28;;;10.90;99.90;;;;;;5052378;27;20105;-72
2023/02/23 05:55:10;;;;;;;155.90;60.15;;;10.90;99.90;;;;;;5041878;27;20056;-73
2023/02/23 05:57:36;;;;;;;148.77;56.85;;;10.90;99.90;;;;;;5046592;27;20369;-73
2023/02/23 06:00:04;;;;;;;136.80;55.83;;;10.80;99.90;;;;;;5043425;27;20021;-73
2023/02/23 06:02:29;;;;;;;150.77;58.30;;;10.80;99.90;;;;;;5049181;27;20041;-74
2023/02/23 06:04:55;;;;;;;156.20;58.83;;;10.90;99.90;;;;;;5039351;27;20384;-74
2023/02/23 06:07:20;;;;;;;148.85;59.33;;;10.80;99.90;;;;;;5047891;27;20029;-74
2023/02/23 06:09:46;;;;;;;140.25;56.65;;;10.80;99.90;;;;;;5047269;27;20078;-74
2023/02/23 06:12:11;;;;;;;152.38;57.75;;;10.80;99.90;;;;;;5049056;27;20380;-74
2023/02/23 06:14:37;;;;;;;149.95;60.78;;;10.80;99.90;;;;;;5060142;27;20019;-74
2023/02/23 06:17:03;;;;;;;155.82;58.53;;;10.80;99.90;;;;;;5053369;27;20485;-74
2023/02/23 06:19:30;;;;;;;161.18;59.47;;;10.80;99.90;;;;;;5053001;27;20034;-75
2023/02/23 06:21:56;;;;;;;164.27;60.95;;;10.80;99.90;;;;;;5045105;27;20026;-72
2023/02/23 06:24:22;;;;;;;179.23;60.13;;;10.80;99.90;;;;;;5045893;27;20461;-75
2023/02/23 06:26:48;;;;;;;195.50;65.88;;;10.80;99.90;;;;;;5047683;27;20021;-75
2023/02/23 06:29:14;;;;;;;163.30;62.33;;;10.90;99.90;;;;;;5050329;27;20362;-74
2023/02/23 06:31:40;;;;;;;171.27;63.88;;;10.90;99.90;;;;;;5047401;27;20813;-74
2023/02/23 06:34:06;;;;;;;159.85;60.13;;;10.90;99.90;;;;;;5053620;27;20026;-74
2023/02/23 06:36:31;;;;;;;155.50;61.08;;;10.90;99.90;;;;;;5051426;27;20421;-75
2023/02/23 06:38:58;;;;;;;150.82;57.85;;;10.80;99.90;;;;;;5047526;27;20385;-75
2023/02/23 06:41:24;;;;;;;154.13;57.75;;;10.80;99.90;;;;;;5041942;28;20026;-75
2023/02/23 06:43:50;;;;;;;192.05;66.20;;;10.80;99.90;;;;;;5054332;27;20036;-75
2023/02/23 06:46:16;;;;;;;167.32;63.30;;;10.80;99.90;;;;;;5051491;27;20021;-74
2023/02/23 06:48:42;;;;;;;155.93;61.55;;;10.80;99.90;;;;;;5049150;27;20143;-73
2023/02/23 06:51:08;;;;;;;149.93;57.75;;;10.80;99.90;;;;;;5055434;27;20485;-73
2023/02/23 06:53:34;;;;;;;150.05;60.72;;;10.80;99.90;;;;;;5051135;27;20438;-71
2023/02/23 06:56:00;;;;;;;165.23;63.30;;;10.80;99.90;;;;;;5048469;27;20036;-71
2023/02/23 06:58:27;;;;;;;153.40;59.75;;;10.80;99.90;;;;;;5053607;27;20022;-72
2023/02/23 07:00:55;;;;;;;176.45;62.05;;;10.70;99.90;;;;;;5047376;27;20079;-72
2023/02/23 07:03:21;;;;;;;172.40;64.60;;;10.80;99.90;;;;;;5040083;27;20022;-73
2023/02/23 07:05:48;;;;;;;176.20;66.22;;;10.80;99.90;;;;;;5059396;27;20026;-72
2023/02/23 07:08:15;;;;;;;166.55;61.95;;;10.80;99.90;;;;;;5035968;27;20021;-72
2023/02/23 07:10:41;;;;;;;221.50;69.35;;;10.80;99.90;;;;;;5056565;27;20039;-72
2023/02/23 07:13:06;;;;;;;203.07;63.97;;;10.80;99.90;;;;;;5055357;27;20021;-73
2023/02/23 07:15:34;;;;;;;206.95;67.07;;;10.80;99.90;;;;;;5041047;27;20037;-73
2023/02/23 07:18:00;;;;;;;221.90;70.30;;;10.90;99.90;;;;;;5049378;27;20047;-73
2023/02/23 07:20:25;;;;;;;197.82;67.18;;;10.90;99.90;;;;;;5053984;27;20544;-74
2023/02/23 07:22:51;;;;;;;177.05;65.43;;;10.90;99.90;;;;;;5042441;27;20025;-75
2023/02/23 07:25:17;;;;;;;169.55;59.60;;;10.90;99.90;;;;;;5131758;27;20021;-75
2023/02/23 07:27:44;;;;;;;173.18;62.75;;;10.90;99.90;;;;;;5045224;27;20430;-75
2023/02/23 07:30:10;;;;;;;168.95;63.05;;;10.80;99.90;;;;;;5059752;27;20129;-74
2023/02/23 07:32:36;;;;;;;158.57;58.45;;;10.80;99.90;;;;;;5040236;27;20029;-74
2023/02/23 07:35:02;;;;;;;165.45;62.70;;;10.80;99.90;;;;;;5053229;27;20117;-74
2023/02/23 07:37:28;;;;;;;166.48;60.20;;;10.80;99.90;;;;;;5042035;27;20163;-74
2023/02/23 07:39:54;;;;;;;169.50;59.00;;;10.80;99.90;;;;;;5047785;27;20053;-74
2023/02/23 07:42:19;;;;;;;238.95;71.22;;;10.80;99.90;;;;;;5055446;27;20516;-74
2023/02/23 07:44:45;;;;;;;159.00;59.78;;;10.80;99.90;;;;;;5048174;27;20034;-74
2023/02/23 07:47:10;;;;;;;155.02;59.97;;;10.80;99.90;;;;;;5057208;27;20048;-75
2023/02/23 07:49:36;;;;;;;163.73;59.20;;;10.80;99.90;;;;;;5048171;27;20040;-74
2023/02/23 07:52:02;;;;;;;161.65;59.38;;;10.70;99.90;;;;;;5057970;27;20037;-74
2023/02/23 07:54:27;;;;;;;160.50;60.85;;;10.70;99.90;;;;;;5048320;27;20017;-74
2023/02/23 07:56:53;;;;;;;150.35;57.33;;;10.80;99.90;;;;;;5038904;28;20051;-75
2023/02/23 07:59:19;;;;;;;159.13;59.30;;;10.80;99.90;;;;;;5050073;27;20037;-75
2023/02/23 08:01:45;;;;;;;165.30;61.92;;;10.80;99.90;;;;;;5042967;27;20078;-74
2023/02/23 08:04:10;;;;;;;167.32;59.05;;;10.80;99.90;;;;;;5049359;27;20030;-75
2023/02/23 08:06:36;;;;;;;166.50;63.20;;;10.80;99.90;;;;;;5045855;27;20124;-75
2023/02/23 08:09:03;;;;;;;151.77;59.95;;;10.90;99.90;;;;;;5052046;27;20553;-75
2023/02/23 08:11:29;;;;;;;163.30;61.63;;;10.80;99.90;;;;;;5054123;27;20130;-75
2023/02/23 08:13:59;;;;;;;168.43;64.00;;;10.80;99.90;;;;;;5043368;27;20074;-75
2023/02/23 08:16:29;;;;;;;159.50;61.60;;;10.80;99.90;;;;;;5061902;27;20464;-75
2023/02/23 08:18:59;;;;;;;166.43;60.60;;;10.80;99.90;;;;;;5040489;27;20022;-74
2023/02/23 08:21:26;;;;;;;154.00;60.33;;;10.80;99.90;;;;;;5045399;27;20056;-75
2023/02/23 08:23:52;;;;;;;165.82;60.63;;;10.80;99.90;;;;;;5043223;27;20085;-75
2023/02/23 08:26:17;;;;;;;166.85;61.95;;;10.90;99.90;;;;;;5046972;27;20029;-75
2023/02/23 08:28:45;;;;;;;158.35;60.40;;;10.90;99.90;;;;;;5041197;27;20089;-75
2023/02/23 08:31:12;;;;;;;154.45;58.03;;;10.80;99.90;;;;;;5046324;27;20032;-75
2023/02/23 08:33:38;;;;;;;159.18;58.83;;;10.90;99.90;;;;;;5045280;27;20018;-75
2023/02/23 08:36:07;;;;;;;141.23;55.97;;;10.90;99.90;;;;;;5053815;27;20033;-75
2023/02/23 08:38:35;;;;;;;146.68;58.90;;;10.90;99.90;;;;;;5050315;27;20023;-74
2023/02/23 08:41:01;;;;;;;147.52;57.22;;;10.80;99.90;;;;;;5052364;27;20376;-75
2023/02/23 08:43:27;;;;;;;157.52;58.25;;;10.80;99.90;;;;;;5043275;27;20108;-75
2023/02/23 08:45:53;;;;;;;162.45;59.75;;;10.90;99.90;;;;;;5058071;27;20032;-75
2023/02/23 08:48:20;;;;;;;149.98;58.60;;;10.90;99.90;;;;;;5045924;27;20033;-75
2023/02/23 08:50:48;;;;;;;146.75;56.58;;;10.90;99.90;;;;;;5045266;27;20469;-75
2023/02/23 08:53:17;;;;;;;137.57;54.42;;;10.90;99.90;;;;;;5044223;27;20511;-75
2023/02/23 08:55:43;;;;;;;141.15;54.10;;;10.80;99.90;;;;;;5048083;27;20049;-76
2023/02/23 08:58:10;;;;;;;146.82;53.30;;;10.80;99.90;;;;;;5064082;27;20025;-75
2023/02/23 09:00:38;;;;;;;137.25;52.67;;;10.90;99.90;;;;;;5045047;28;20025;-75
2023/02/23 09:03:05;;;;;;;141.95;55.88;;;10.80;99.90;;;;;;5042414;27;20395;-76
2023/02/23 09:05:32;;;;;;;147.85;54.15;;;10.80;99.90;;;;;;5044203;27;20033;-75
2023/02/23 09:07:58;;;;;;;140.38;52.83;;;10.80;99.90;;;;;;5052246;27;20024;-74
2023/02/23 09:10:26;;;;;;;149.60;55.90;;;10.90;99.90;;;;;;5049255;27;20486;-74
2023/02/23 09:12:52;;;;;;;135.80;53.15;;;10.90;99.90;;;;;;5049619;27;20026;-75
2023/02/23 09:15:18;;;;;;;132.63;54.70;;;10.90;99.90;;;;;;5049827;27;20070;-74
2023/02/23 09:17:46;;;;;;;128.77;53.53;;;10.90;99.90;;;;;;5061809;27;20090;-73
2023/02/23 09:20:14;;;;;;;146.20;52.42;;;10.90;99.90;;;;;;5059898;27;20128;-74
2023/02/23 09:22:44;;;;;;;122.80;47.92;;;11.00;99.90;;;;;;5041842;27;20021;-75
2023/02/23 09:25:11;;;;;;;139.63;50.72;;;11.00;99.90;;;;;;5047742;27;20377;-74
2023/02/23 09:27:37;;;;;;;115.43;47.30;;;11.00;99.90;;;;;;5046398;27;20022;-74
2023/02/23 09:30:04;;;;;;;107.75;43.55;;;11.10;99.90;;;;;;5051191;27;20090;-74
2023/02/23 09:32:29;;;;;;;118.05;45.92;;;11.10;99.90;;;;;;5045939;27;20572;-74
2023/02/23 09:34:55;;;;;;;110.43;44.20;;;11.10;99.90;;;;;;5039642;27;20497;-74
2023/02/23 09:37:20;;;;;;;100.38;41.95;;;11.10;99.90;;;;;;5054243;27;20522;-76
2023/02/23 09:39:47;;;;;;;106.40;42.60;;;11.10;99.90;;;;;;5044013;28;20488;-75
2023/02/23 09:42:27;;;;;;;96.47;39.53;;;11.10;99.90;;;;;;5044953;27;20033;-75
2023/02/23 09:44:55;;;;;;;98.00;41.13;;;11.10;99.90;;;;;;5039419;27;20024;-74
2023/02/23 09:47:32;;;;;;;98.35;39.45;;;11.20;99.90;;;;;;5047745;27;20102;-74
2023/02/23 09:50:01;;;;;;;99.00;38.85;;;11.20;99.90;;;;;;5053688;27;20045;-75
2023/02/23 09:52:41;;;;;;;91.35;40.00;;;11.30;99.90;;;;;;5049933;27;20516;-73
2023/02/23 09:55:10;;;;;;;99.78;40.10;;;11.20;99.90;;;;;;5014871;27;20094;-75
2023/02/23 09:57:38;;;;;;;96.80;41.00;;;11.30;99.90;;;;;;5041891;27;20026;-75
2023/02/23 10:00:29;;;;;;;96.13;40.85;;;11.30;99.90;;;;;;5047860;27;20049;-75
2023/02/23 10:03:05;;;;;;;106.72;40.80;;;11.30;99.90;;;;;;5045685;27;20026;-75
2023/02/23 10:05:38;;;;;;;107.20;44.38;;;11.30;99.90;;;;;;5045157;27;20302;-75
2023/02/23 10:08:08;;;;;;;100.53;41.13;;;11.30;99.90;;;;;;5042209;27;20104;-74
2023/02/23 10:10:37;;;;;;;107.93;42.42;;;11.20;99.90;;;;;;5043447;27;20029;-74
2023/02/23 10:13:48;;;;;;;103.70;44.35;;;11.20;99.90;;;;;;5039035;27;20113;-74
2023/02/23 10:16:22;;;;;;;109.85;43.08;;;11.20;99.90;;;;;;5022623;27;20073;-75
2023/02/23 10:18:55;;;;;;;99.40;40.90;;;11.20;99.90;;;;;;5048552;27;20076;-74
2023/02/23 10:21:34;;;;;;;104.60;43.80;;;11.20;99.90;;;;;;5038822;27;23011;-74
2023/02/23 10:24:18;;;;;;;98.53;42.03;;;11.20;99.90;;;;;;5044202;27;20073;-74
2023/02/23 10:27:03;;;;;;;102.15;42.08;;;11.20;99.90;;;;;;5051728;27;20466;-75
2023/02/23 10:29:31;;;;;;;104.32;41.30;;;11.20;99.90;;;;;;5056285;27;20074;-75
2023/02/23 10:32:05;;;;;;;96.72;42.55;;;11.20;99.90;;;;;;5044531;27;20410;-75
2023/02/23 10:34:31;;;;;;;109.15;44.83;;;11.30;99.90;;;;;;5041417;27;20108;-75
2023/02/23 10:37:02;;;;;;;98.03;41.05;;;11.30;99.90;;;;;;5037772;27;20125;-74
2023/02/23 10:39:30;;;;;;;100.67;42.20;;;11.30;99.90;;;;;;5036630;27;20532;-74
2023/02/23 10:41:59;;;;;;;102.00;42.25;;;11.30;99.90;;;;;;5044261;27;20108;-74
2023/02/23 10:44:26;;;;;;;101.18;42.25;;;11.40;99.90;;;;;;5037406;27;20024;-74
2023/02/23 10:47:00;;;;;;;99.45;41.45;;;11.40;99.90;;;;;;5049829;27;20030;-75
2023/02/23 10:49:48;;;;;;;99.63;43.38;;;11.40;99.90;;;;;;5116474;27;20024;-75
2023/02/23 10:52:37;;;;;;;96.38;42.22;;;11.40;99.90;;;;;;5039789;27;20149;-75
2023/02/23 10:55:07;;;;;;;98.28;41.65;;;11.50;99.90;;;;;;5047664;27;20053;-74
2023/02/23 10:57:37;;;;;;;92.95;40.35;;;11.60;99.90;;;;;;5042723;27;20017;-75
2023/02/23 11:00:26;;;;;;;86.70;39.03;;;11.60;99.90;;;;;;5039980;27;20475;-75
2023/02/23 11:02:53;;;;;;;94.00;41.53;;;11.60;99.90;;;;;;5038362;27;20434;-74
2023/02/23 11:05:46;;;;;;;89.88;40.13;;;11.70;99.90;;;;;;5040626;27;20449;-75
2023/02/23 11:08:28;;;;;;;91.60;40.90;;;11.70;99.90;;;;;;5039389;27;20029;-75
2023/02/23 11:11:07;;;;;;;93.45;41.22;;;11.70;99.90;;;;;;5039734;27;20556;-74
2023/02/23 11:13:41;;;;;;;93.70;39.35;;;11.80;99.90;;;;;;5046892;27;20029;-74
2023/02/23 11:16:10;;;;;;;88.75;40.25;;;11.80;99.90;;;;;;5047435;27;20017;-75
2023/02/23 11:18:38;;;;;;;77.18;36.20;;;11.80;99.90;;;;;;5048426;27;20017;-75
2023/02/23 11:21:10;;;;;;;83.63;39.63;;;11.80;99.90;;;;;;5040694;27;20047;-75
2023/02/23 11:23:36;;;;;;;74.78;36.17;;;11.90;99.90;;;;;;5042899;27;20536;-75
2023/02/23 11:26:21;;;;;;;76.28;36.22;;;11.80;99.90;;;;;;5052742;27;20022;-75
2023/02/23 11:28:50;;;;;;;79.70;37.13;;;11.90;99.90;;;;;;5039524;27;20070;-75
2023/02/23 11:31:21;;;;;;;78.75;38.63;;;11.90;99.90;;;;;;5045765;27;20104;-74
2023/02/23 11:33:49;;;;;;;74.50;35.78;;;11.90;99.90;;;;;;5053603;27;20552;-76
2023/02/23 11:36:21;;;;;;;77.43;38.22;;;12.00;99.90;;;;;;5058459;27;20029;-76
2023/02/23 11:38:46;;;;;;;77.90;37.88;;;12.00;99.90;;;;;;5036163;27;20041;-76
2023/02/23 11:41:22;;;;;;;74.50;35.88;;;12.00;99.90;;;;;;5043046;27;20033;-76
2023/02/23 11:43:49;;;;;;;74.05;37.17;;;12.00;99.90;;;;;;5048929;27;20035;-76
2023/02/23 11:46:17;;;;;;;72.78;36.78;;;12.00;99.90;;;;;;5044677;27;20403;-76
2023/02/23 11:49:13;;;;;;;70.57;34.28;;;12.00;99.90;;;;;;5055829;27;20136;-76
2023/02/23 11:51:45;;;;;;;65.53;32.72;;;12.00;99.90;;;;;;5047212;27;20042;-75
2023/02/23 11:54:23;;;;;;;62.88;30.98;;;12.00;99.90;;;;;;5040520;27;20389;-75
2023/02/23 11:56:54;;;;;;;63.78;33.53;;;12.10;99.90;;;;;;5045305;27;20488;-76
2023/02/23 11:59:43;;;;;;;66.97;35.38;;;12.10;99.90;;;;;;5040653;27;20033;-76
2023/02/23 12:02:30;;;;;;;64.57;33.22;;;12.20;99.90;;;;;;5053813;27;20038;-76
2023/02/23 12:05:15;;;;;;;66.30;34.63;;;12.20;99.90;;;;;;5045613;27;20047;-75
2023/02/23 12:08:04;;;;;;;65.70;33.78;;;12.20;99.90;;;;;;5049381;27;20032;-76
2023/02/23 12:10:39;;;;;;;61.38;32.40;;;12.30;99.90;;;;;;5048024;27;20056;-75
2023/02/23 12:13:25;;;;;;;66.28;32.40;;;12.30;99.90;;;;;;5049070;27;20039;-75
2023/02/23 12:16:18;;;;;;;70.65;32.03;;;12.20;99.90;;;;;;5052391;27;20052;-75
2023/02/23 12:18:53;;;;;;;60.75;32.88;;;12.30;99.90;;;;;;5039973;27;20021;-76
2023/02/23 12:21:21;;;;;;;60.17;31.20;;;12.30;99.90;;;;;;5049135;27;20033;-76
2023/02/23 12:23:49;;;;;;;56.88;30.15;;;12.30;99.90;;;;;;5047199;27;20036;-76
2023/02/23 12:26:20;;;;;;;65.68;32.88;;;12.30;99.90;;;;;;5039372;27;20485;-76
2023/02/23 12:29:01;;;;;;;60.92;31.23;;;12.30;99.90;;;;;;5041678;27;20069;-76
2023/02/23 12:31:44;;;;;;;60.95;30.55;;;12.30;99.90;;;;;;5043168;27;20051;-75
2023/02/23 12:34:20;;;;;;;60.47;34.10;;;12.30;99.90;;;;;;5048981;27;20105;-74
2023/02/23 12:37:27;;;;;;;60.78;31.15;;;12.30;99.90;;;;;;5044165;27;20032;-75
2023/02/23 12:40:02;;;;;;;59.63;29.95;;;12.20;99.90;;;;;;4979225;28;20506;-75
2023/02/23 12:43:03;;;;;;;50.28;26.77;;;12.30;99.90;;;;;;5045491;27;20045;-75
2023/02/23 12:45:51;;;;;;;51.28;25.83;;;12.20;99.90;;;;;;5081292;28;20189;-75
2023/02/23 12:48:50;;;;;;;51.55;26.83;;;12.30;99.90;;;;;;5046299;27;20037;-75
2023/02/23 12:51:23;;;;;;;56.45;27.75;;;12.30;99.90;;;;;;5036611;27;20048;-74
2023/02/23 12:53:51;;;;;;;50.35;26.67;;;12.40;99.90;;;;;;5039271;27;20052;-74
2023/02/23 12:56:41;;;;;;;48.05;26.00;;;12.40;99.90;;;;;;5040263;27;20036;-73
2023/02/23 12:59:13;;;;;;;49.10;24.92;;;12.40;99.90;;;;;;5060239;27;20029;-72
2023/02/23 13:01:47;;;;;;;48.42;25.17;;;12.40;99.90;;;;;;5043458;27;20021;-76
2023/02/23 13:04:21;;;;;;;49.65;25.95;;;12.40;99.90;;;;;;5041739;27;20037;-75
2023/02/23 13:06:58;;;;;;;54.53;26.08;;;12.40;99.90;;;;;;5052505;27;20032;-73
2023/02/23 13:09:23;;;;;;;45.40;22.17;;;12.40;99.90;;;;;;5046783;27;20016;-74
2023/02/23 13:12:05;;;;;;;43.72;23.38;;;12.40;99.90;;;;;;5039883;27;20037;-75
2023/02/23 13:14:41;;;;;;;40.88;23.20;;;12.40;99.90;;;;;;5039205;27;20115;-74
2023/02/23 13:17:26;;;;;;;41.55;23.13;;;12.30;99.90;;;;;;5037886;27;20461;-74
2023/02/23 13:19:58;;;;;;;46.03;23.00;;;12.40;99.90;;;;;;5041780;27;20036;-73
2023/02/23 13:22:47;;;;;;;39.13;21.83;;;12.40;99.90;;;;;;5041264;27;20358;-74
2023/02/23 13:25:24;;;;;;;24.73;13.55;;;12.40;99.90;;;;;;5050828;27;20354;-73
2023/02/23 13:27:55;;;;;;;27.83;14.70;;;12.30;99.90;;;;;;5048202;27;20017;-74
2023/02/23 13:30:21;;;;;;;25.52;14.80;;;12.30;99.90;;;;;;5041982;27;20033;-74
2023/02/23 13:32:47;;;;;;;24.10;14.25;;;12.30;99.90;;;;;;5043753;27;20084;-75
2023/02/23 13:35:16;;;;;;;30.15;15.80;;;12.30;99.90;;;;;;5046329;27;20409;-77
2023/02/23 13:37:51;;;;;;;28.60;16.17;;;12.20;99.90;;;;;;5043081;27;20032;-77
2023/02/23 13:40:30;;;;;;;33.13;17.40;;;12.10;99.90;;;;;;5039768;27;20025;-75
2023/02/23 13:43:12;;;;;;;32.50;17.52;;;12.20;99.90;;;;;;5045816;27;20036;-74
2023/02/23 13:45:50;;;;;;;37.05;19.08;;;12.10;99.90;;;;;;5039924;27;20022;-72
2023/02/23 13:48:31;;;;;;;34.90;19.48;;;12.10;99.90;;;;;;5046544;27;20029;-76
2023/02/23 13:51:12;;;;;;;37.05;20.63;;;12.10;99.90;;;;;;5038541;27;20033;-76
2023/02/23 13:53:46;;;;;;;40.35;20.70;;;12.10;99.90;;;;;;5049504;27;20038;-76
2023/02/23 13:56:22;;;;;;;39.85;20.83;;;12.10;99.90;;;;;;5044007;27;20052;-74
2023/02/23 13:58:56;;;;;;;38.92;20.02;;;12.10;99.90;;;;;;5046305;27;20032;-72